Lleida, Spain

9:07 PM CEST on September 28, 2016 (GMT +0200)
Pardinyes,Lleida | | Change Station

Elev 557 ft 41.62 °N, 0.64 °E | Updated 38 minutes ago

Partly Cloudy
Partly Cloudy
74.8 °F
Feels Like 78 °F
N
4.5
Wind Variable Wind from SSW
Gusts 8.3 mph

Today
High -- | Low -- °F
--% Chance of Precip.
Yesterday
High -- | Low -- °F
Precip. -- in
Pressure 30.39 in
Visibility 6.2 miles
Clouds Few 3000 ft
Heat Index 78 °F
Dew Point 56 °F
Humidity 51%
Rainfall 0.00 in
Snow Depth Not available.
7:51 AM 7:43 PM
Waning Crescent, 5% visible
METAR LERS 281900Z 06003KT 020V080 9999 FEW030 21/17 Q1029
Pressure 30.39 in
Visibility 6.2 miles
Clouds Few 3000 ft
Heat Index 78 °F
Dew Point 56 °F
Humidity 51%
Rainfall 0.00 in
Snow Depth Not available.
7:51 AM 7:43 PM
Waning Crescent, 5% visible
METAR LERS 281900Z 06003KT 020V080 9999 FEW030 21/17 Q1029

10-Day Weather Forecast

×

Almanac

Astronomy

Sep. 28, 2016 Rise Set
Actual Time
Civil Twilight
Nautical Twilight
Astronomical Twilight
Moon
Length of Visible Light
Length of Day
Tomorrow will be .
, % of the Moon is Illuminated

Today's Extremes

Country Highs Country Lows

Community

WunderPhotos

Upload Photos

1,942,303 photos uploaded!

WunderBlog® & News

Nearby

Air Quality

  Air Quality AQ Index Pollutant
Not available.

Snow Depth

Station Depth Elevation

Earthquake Activity

City Distance Mag. Time & Date
Minimum magnitude displayed is 2.5.

Coastal Water Temperatures

Place Temperature

Stations

Nearby Weather Stations

Station Location Temp. Windchill Dew Point Humidity Wind Precip. Elev Updated Type